createdAt,value
2018-09-27T00:09:45.999Z,7.40
2018-09-27T00:14:49.158Z,7.50
2018-09-27T00:19:52.416Z,7.60
2018-09-27T00:24:55.731Z,7.60
2018-09-27T00:29:58.803Z,7.50
2018-09-27T00:35:04.467Z,7.40
2018-09-27T00:40:07.824Z,7.40
2018-09-27T00:45:11.105Z,7.10
2018-09-27T00:50:14.117Z,7.00
2018-09-27T00:55:17.030Z,6.90
2018-09-27T01:00:20.491Z,7.00
2018-09-27T01:05:23.630Z,7.00
2018-09-27T01:10:26.528Z,6.90
2018-09-27T01:15:30.697Z,6.70
2018-09-27T01:20:33.627Z,6.70
2018-09-27T01:25:36.560Z,6.80
2018-09-27T01:30:39.480Z,6.90
2018-09-27T01:35:42.403Z,6.80
2018-09-27T01:40:45.435Z,6.70
2018-09-27T01:45:48.371Z,6.50
2018-09-27T01:50:51.576Z,6.30
2018-09-27T01:55:54.455Z,6.40
2018-09-27T02:00:57.372Z,6.50
2018-09-27T02:06:00.283Z,6.70
2018-09-27T02:11:03.798Z,6.60
2018-09-27T02:16:06.747Z,6.50
2018-09-27T02:21:10.088Z,6.50
2018-09-27T02:26:13.019Z,6.60
2018-09-27T02:31:15.975Z,6.50
2018-09-27T02:36:18.983Z,6.10
2018-09-27T02:41:22.029Z,6.20
2018-09-27T02:46:25.028Z,6.30
2018-09-27T02:51:28.047Z,6.50
2018-09-27T02:56:31.063Z,6.40
2018-09-27T03:01:34.161Z,6.40
2018-09-27T03:06:37.227Z,6.40
2018-09-27T03:11:40.861Z,6.30
2018-09-27T03:16:43.893Z,6.20
2018-09-27T03:21:46.852Z,6.10
2018-09-27T03:26:49.770Z,6.10
2018-09-27T03:31:52.731Z,6.30
2018-09-27T03:36:55.644Z,6.20
2018-09-27T03:41:58.576Z,6.00
2018-09-27T03:47:03.021Z,5.90
2018-09-27T03:52:06.128Z,5.80
2018-09-27T03:57:09.019Z,5.80
2018-09-27T04:02:11.943Z,5.90
2018-09-27T04:12:23.870Z,5.80
2018-09-27T04:17:26.752Z,5.80
2018-09-27T04:22:29.701Z,5.90
2018-09-27T04:27:32.597Z,5.90
2018-09-27T04:32:35.516Z,5.90
2018-09-27T04:37:38.499Z,5.80
2018-09-27T04:42:41.448Z,5.70
2018-09-27T04:47:44.419Z,5.60
2018-09-27T04:52:47.307Z,5.50
2018-09-27T05:03:17.981Z,5.60
2018-09-27T05:08:21.635Z,5.60
2018-09-27T05:13:24.593Z,5.70
2018-09-27T05:18:27.484Z,5.70
2018-09-27T05:23:30.411Z,5.80
2018-09-27T05:28:33.339Z,5.80
2018-09-27T05:33:36.902Z,5.80
2018-09-27T05:38:39.775Z,5.90
2018-09-27T05:43:42.763Z,6.10
2018-09-27T05:48:45.668Z,6.30
2018-09-27T05:53:48.736Z,6.40
2018-09-27T05:58:51.639Z,6.90
2018-09-27T06:03:54.547Z,7.40
2018-09-27T06:08:57.684Z,8.80
2018-09-27T06:14:01.670Z,10.30
2018-09-27T06:19:05.589Z,11.30
2018-09-27T06:24:08.565Z,12.20
2018-09-27T06:29:11.455Z,12.80
2018-09-27T06:34:14.366Z,13.80
2018-09-27T06:39:17.509Z,14.70
2018-09-27T06:44:20.552Z,13.90
2018-09-27T06:49:23.723Z,13.80
2018-09-27T06:54:26.736Z,14.40
2018-09-27T06:59:29.720Z,14.30
2018-09-27T07:04:32.845Z,14.90
2018-09-27T07:09:35.795Z,14.80
2018-09-27T07:14:38.945Z,14.40
2018-09-27T07:19:41.939Z,13.50
2018-09-27T07:24:44.875Z,14.20
2018-09-27T07:29:47.808Z,14.10
2018-09-27T07:34:50.840Z,14.80
2018-09-27T07:39:53.802Z,15.50
2018-09-27T07:44:56.756Z,15.90
2018-09-27T07:49:59.713Z,16.00
2018-09-27T07:55:04.443Z,15.60
2018-09-27T08:00:07.512Z,15.70
2018-09-27T08:05:10.453Z,15.50
2018-09-27T08:10:13.390Z,15.40
2018-09-27T08:15:16.388Z,15.40
2018-09-27T08:20:19.343Z,15.30
2018-09-27T08:25:22.288Z,14.80
2018-09-27T08:30:25.271Z,15.40
2018-09-27T08:35:28.415Z,15.50
2018-09-27T08:40:31.354Z,15.70
2018-09-27T08:45:34.593Z,15.70
2018-09-27T08:50:37.483Z,15.50
2018-09-27T08:55:40.536Z,15.60
2018-09-27T09:00:43.535Z,15.40
2018-09-27T09:05:46.612Z,15.50
2018-09-27T09:10:49.621Z,15.80
2018-09-27T09:15:52.637Z,15.80
2018-09-27T09:20:55.665Z,16.00
2018-09-27T09:25:58.667Z,16.40
2018-09-27T09:31:02.736Z,16.10
2018-09-27T09:36:05.850Z,16.10
2018-09-27T09:41:08.778Z,16.00
2018-09-27T09:46:11.985Z,16.20
2018-09-27T09:51:15.007Z,16.30
2018-09-27T09:56:18.027Z,16.50
2018-09-27T10:01:21.052Z,16.70
2018-09-27T10:06:24.925Z,16.80
2018-09-27T10:11:27.998Z,16.90
2018-09-27T10:16:31.134Z,16.80
2018-09-27T10:21:34.160Z,16.90
2018-09-27T10:26:37.351Z,17.00
2018-09-27T10:31:40.355Z,17.40
2018-09-27T10:36:43.331Z,17.40
2018-09-27T10:41:46.336Z,17.60
2018-09-27T10:46:49.403Z,17.60
2018-09-27T10:51:52.433Z,17.60
2018-09-27T10:56:55.420Z,17.80
2018-09-27T11:01:58.467Z,17.90
2018-09-27T11:07:02.230Z,18.00
2018-09-27T11:12:05.129Z,17.80
2018-09-27T11:17:08.170Z,17.80
2018-09-27T11:22:11.266Z,18.10
2018-09-27T11:27:14.528Z,18.20
2018-09-27T11:32:23.183Z,18.60
2018-09-27T11:37:26.524Z,18.60
2018-09-27T11:42:29.602Z,18.70
2018-09-27T11:47:32.839Z,18.70
2018-09-27T11:52:35.966Z,18.70
2018-09-27T11:57:39.032Z,19.10
2018-09-27T12:02:42.027Z,19.20
2018-09-27T12:07:45.094Z,19.20
2018-09-27T12:12:48.188Z,19.30
2018-09-27T12:17:51.173Z,19.50
2018-09-27T12:22:54.245Z,19.90
2018-09-27T12:27:57.244Z,19.80
2018-09-27T12:33:00.403Z,19.90
2018-09-27T12:38:03.899Z,20.00
2018-09-27T12:43:07.636Z,20.00
2018-09-27T12:48:10.826Z,20.20
2018-09-27T12:53:13.862Z,20.10
2018-09-27T12:58:16.808Z,20.20
2018-09-27T13:03:19.808Z,20.30
2018-09-27T13:08:22.815Z,20.40
2018-09-27T13:13:25.970Z,20.30
2018-09-27T13:18:28.865Z,20.40
2018-09-27T13:23:31.901Z,20.70
2018-09-27T13:28:34.984Z,20.60
2018-09-27T13:33:38.023Z,20.80
2018-09-27T13:38:41.112Z,20.80
2018-09-27T13:43:44.159Z,20.90
2018-09-27T13:48:47.163Z,21.00
2018-09-27T13:53:50.302Z,20.90
2018-09-27T13:58:53.390Z,20.90
2018-09-27T14:03:56.445Z,21.00
2018-09-27T14:08:59.470Z,20.90
2018-09-27T14:14:04.273Z,21.00
2018-09-27T14:19:07.312Z,21.00
2018-09-27T14:24:10.500Z,21.10
2018-09-27T14:29:13.479Z,21.10
2018-09-27T14:34:16.619Z,21.10
2018-09-27T14:39:19.980Z,21.10
2018-09-27T14:44:22.941Z,21.30
2018-09-27T14:49:25.922Z,21.20
2018-09-27T14:54:28.896Z,21.20
2018-09-27T14:59:31.951Z,21.20
2018-09-27T15:04:35.235Z,21.10
2018-09-27T15:09:38.250Z,21.20
2018-09-27T15:14:41.258Z,21.10
2018-09-27T15:19:44.209Z,21.10
2018-09-27T15:24:47.281Z,21.00
2018-09-27T15:29:50.320Z,21.10
2018-09-27T15:34:53.379Z,21.00
2018-09-27T15:39:56.558Z,20.90
2018-09-27T15:44:59.745Z,20.80
2018-09-27T15:50:03.542Z,20.60
2018-09-27T15:55:06.625Z,20.50
2018-09-27T16:00:09.775Z,20.40
2018-09-27T16:05:12.937Z,20.40
2018-09-27T16:10:15.971Z,20.30
2018-09-27T16:15:19.019Z,20.30
2018-09-27T16:20:22.062Z,20.10
2018-09-27T16:25:25.221Z,20.10
2018-09-27T16:30:28.341Z,20.00
2018-09-27T16:35:31.412Z,19.80
2018-09-27T16:40:34.837Z,19.60
2018-09-27T16:45:38.345Z,19.40
2018-09-27T16:50:41.518Z,19.10
2018-09-27T16:55:44.579Z,18.70
2018-09-27T17:00:47.629Z,18.40
2018-09-27T17:05:50.819Z,18.20
2018-09-27T17:10:53.928Z,18.00
2018-09-27T17:15:57.057Z,17.70
2018-09-27T17:21:00.187Z,17.50
2018-09-27T17:26:03.308Z,17.30
2018-09-27T17:31:07.201Z,16.90
2018-09-27T17:36:10.350Z,16.60
2018-09-27T17:41:13.431Z,16.30
2018-09-27T17:46:16.526Z,16.00
2018-09-27T17:51:19.603Z,15.70
2018-09-27T17:56:22.771Z,15.40
2018-09-27T18:01:25.829Z,15.10
2018-09-27T18:06:29.019Z,14.90
2018-09-27T18:11:32.170Z,14.90
2018-09-27T18:16:35.337Z,14.70
2018-09-27T18:21:38.352Z,14.60
2018-09-27T18:26:41.603Z,14.30
2018-09-27T18:31:45.021Z,14.10
2018-09-27T18:36:48.045Z,14.00
2018-09-27T18:41:51.137Z,13.80
2018-09-27T18:46:54.200Z,13.80
2018-09-27T18:51:57.360Z,13.70
2018-09-27T18:57:00.392Z,13.50
2018-09-27T19:02:05.534Z,13.50
2018-09-27T19:07:08.819Z,13.50
2018-09-27T19:12:12.097Z,13.30
2018-09-27T19:17:15.393Z,13.20
2018-09-27T19:22:18.460Z,13.30
2018-09-27T19:27:21.724Z,13.20
2018-09-27T19:32:24.914Z,13.00
2018-09-27T19:37:27.923Z,12.90
2018-09-27T19:42:31.208Z,12.80
2018-09-27T19:47:34.263Z,12.70
2018-09-27T19:52:37.534Z,12.50
2018-09-27T19:57:40.713Z,12.30
2018-09-27T20:02:43.982Z,12.20
2018-09-27T20:07:46.849Z,12.20
2018-09-27T20:12:50.105Z,12.20
2018-09-27T20:17:53.324Z,12.00
2018-09-27T20:22:56.493Z,11.80
2018-09-27T20:27:59.546Z,11.80
2018-09-27T20:33:03.980Z,11.70
2018-09-27T20:38:07.095Z,11.70
2018-09-27T20:43:10.214Z,11.60
2018-09-27T20:48:13.272Z,11.50
2018-09-27T20:53:16.270Z,11.30
2018-09-27T20:58:19.495Z,11.30
2018-09-27T21:03:22.669Z,11.30
2018-09-27T21:08:25.703Z,11.30
2018-09-27T21:13:28.698Z,11.10
2018-09-27T21:18:31.768Z,11.00
2018-09-27T21:23:35.304Z,10.80
2018-09-27T21:28:38.351Z,10.80
2018-09-27T21:33:41.548Z,10.90
2018-09-27T21:38:44.536Z,10.90
2018-09-27T21:43:47.524Z,10.90
2018-09-27T21:48:50.531Z,10.70
2018-09-27T21:53:53.512Z,10.60
2018-09-27T21:58:56.532Z,10.40
2018-09-27T22:03:59.640Z,10.40
2018-09-27T22:09:07.133Z,10.20
2018-09-27T22:14:10.125Z,10.20
2018-09-27T22:19:13.151Z,10.10
2018-09-27T22:24:16.078Z,10.20
2018-09-27T22:29:19.021Z,10.10
2018-09-27T22:34:22.016Z,9.90
2018-09-27T22:39:24.947Z,9.80
2018-09-27T22:44:27.928Z,9.80
2018-09-27T22:49:30.905Z,9.80
2018-09-27T22:54:33.870Z,9.90
2018-09-27T22:59:36.876Z,10.10
2018-09-27T23:04:39.840Z,10.30
2018-09-27T23:09:42.794Z,10.20
2018-09-27T23:14:45.755Z,9.80
2018-09-27T23:19:48.907Z,9.60
2018-09-27T23:24:52.016Z,9.70
2018-09-27T23:29:54.967Z,9.70
2018-09-27T23:34:58.079Z,9.70
2018-09-27T23:40:05.610Z,9.70
2018-09-27T23:45:08.615Z,9.60
2018-09-27T23:50:11.984Z,9.50
2018-09-27T23:55:15.155Z,9.40
